• Join FlightAware (Why Join?)
  • Login
  • US Flag 
Trick or treat! (Boo!!) 
04:47AM EDT


 

Airport Tracker/Info


-or-


 

Live Flight TrackerFlight Track Log ✈ N12502 ✈ 23-Apr-2014 ✈ KCMI - KLAF

Flight Track Log - Related Links

Times and Time Zones

All times are in EDT time to prevent confusion due to time zone crossing. See the N12502 flight status page for this flight to view local times or setup timezone preferences in your user account.

Time Position Orientation Groundspeed Altitude Reporting Facility
EDT Latitude Longitude Course Direction KTS MPH feet Rate Location/Type
09:55AM 40.1073 -88.0001 70° East  Level FlightAware Approximate
09:56AM 40.1193 -87.9555 71° East  Level FlightAware Approximate
09:57AM 40.1313 -87.9109 71° East  Level FlightAware Approximate
09:58AM 40.1433 -87.8663 71° East  Level FlightAware Approximate
09:59AM 40.1553 -87.8216 71° East  Level FlightAware Approximate
10:00AM 40.1672 -87.7769 71° East  Level FlightAware Approximate
10:01AM 40.1792 -87.7323 71° East  Level FlightAware Approximate
10:02AM 40.1919 -87.6880 69° East  Level FlightAware Approximate
10:03AM 40.2051 -87.6439 69° East  Level FlightAware Approximate
10:04AM 40.2182 -87.5998 69° East  Level FlightAware Approximate
10:05AM 40.2313 -87.5556 69° East  Level FlightAware Approximate
10:06AM 40.2444 -87.5115 69° East  Level FlightAware Approximate
10:07AM 40.2575 -87.4673 69° East  Level FlightAware Approximate
10:08AM 40.2706 -87.4231 69° East  Level FlightAware Approximate
10:09AM 40.2836 -87.3789 69° East  Level FlightAware Approximate
10:10AM 40.2967 -87.3347 69° East  Level FlightAware Approximate
10:11AM 40.3097 -87.2904 69° East  Level FlightAware Approximate
10:12AM 40.3219 -87.2458 72° East  Level FlightAware Approximate
10:13AM 40.3332 -87.2007 72° East  Level FlightAware Approximate
10:14AM 40.3445 -87.1557 72° East  Level FlightAware Approximate
10:15AM 40.3557 -87.1106 72° East  Level FlightAware Approximate
10:16AM 40.3670 -87.0655 72° East  Level FlightAware Approximate
10:17AM 40.3783 -87.0203 72° East  Level FlightAware Approximate
10:18AM 40.3895 -86.9752 72° East  Level FlightAware Approximate
10:19AM 40.4000 -86.9333 72° East  Level FlightAware Approximate
10:20AM 40.4123 -86.9369 270° West  Level Estimated
10:21AM 40.4123 -86.9369 72° East  Level Estimated